createdAt,value
2018-06-03T20:36:10.337Z,25.30
2018-06-03T20:38:36.358Z,25.80
2018-06-03T20:41:02.408Z,26.30
2018-06-03T20:46:00.827Z,26.80
2018-06-03T20:48:26.838Z,26.90
2018-06-03T20:50:52.932Z,27.00
2018-06-03T20:53:18.948Z,27.10
2018-06-03T20:55:44.980Z,27.10
2018-06-03T20:58:10.995Z,27.10
2018-06-03T21:00:37.023Z,27.10
2018-06-03T21:03:03.042Z,27.10
2018-06-03T21:05:29.156Z,27.20
2018-06-03T21:07:55.185Z,27.20
2018-06-03T21:10:21.215Z,27.10
2018-06-03T21:12:47.224Z,27.20
2018-06-03T21:15:13.255Z,27.10
2018-06-03T21:17:39.262Z,27.10
2018-06-03T21:20:05.309Z,27.10
2018-06-03T21:22:31.329Z,27.10
2018-06-03T21:24:57.372Z,27.10
2018-06-03T21:27:23.399Z,27.10
2018-06-03T21:29:49.426Z,27.20
2018-06-03T21:32:15.459Z,27.10
2018-06-03T21:34:41.519Z,27.10
2018-06-03T21:37:07.532Z,27.10
2018-06-03T21:39:33.563Z,27.10
2018-06-03T21:41:59.591Z,27.10
2018-06-03T21:44:25.623Z,27.10
2018-06-03T21:46:51.667Z,27.10
2018-06-03T21:49:17.687Z,27.10
2018-06-03T21:51:43.699Z,27.10
2018-06-03T21:54:09.728Z,27.10
2018-06-03T21:56:35.742Z,27.10
2018-06-03T21:59:01.763Z,27.10
2018-06-03T22:01:27.811Z,27.10
2018-06-03T22:03:53.826Z,27.10
2018-06-03T22:06:19.848Z,27.10
2018-06-03T22:08:45.867Z,27.10
2018-06-03T22:11:11.890Z,27.10
2018-06-03T22:13:37.914Z,27.10
2018-06-03T22:16:03.968Z,27.10
2018-06-03T22:18:29.988Z,27.10
2018-06-03T22:20:56.014Z,27.10
2018-06-03T22:23:22.038Z,27.10
2018-06-03T22:25:48.071Z,27.00
2018-06-03T22:28:14.107Z,27.00
2018-06-03T22:30:40.131Z,27.00
2018-06-03T22:33:06.146Z,27.00
2018-06-03T22:35:32.166Z,27.00
2018-06-03T22:37:58.185Z,27.00
2018-06-03T22:40:24.356Z,27.00
2018-06-03T22:42:50.385Z,27.00
2018-06-03T22:45:16.432Z,27.00
2018-06-03T22:47:42.464Z,27.00
2018-06-03T22:50:08.546Z,27.00
2018-06-03T22:52:34.537Z,26.90
2018-06-03T22:55:00.562Z,26.90
2018-06-03T22:57:26.599Z,26.90
2018-06-03T22:59:52.635Z,26.90
2018-06-03T23:02:18.650Z,27.00
2018-06-03T23:04:44.666Z,26.90
2018-06-03T23:07:10.682Z,26.90
2018-06-03T23:09:36.702Z,26.90
2018-06-03T23:12:02.722Z,26.90
2018-06-03T23:14:28.727Z,26.90
2018-06-03T23:16:54.801Z,26.90
2018-06-03T23:19:20.794Z,26.90
2018-06-03T23:21:46.835Z,26.90
2018-06-03T23:24:12.839Z,26.90
2018-06-03T23:26:38.864Z,26.90
2018-06-03T23:29:04.896Z,26.90
2018-06-03T23:31:30.913Z,26.90
2018-06-03T23:33:56.932Z,26.90
2018-06-03T23:36:22.950Z,26.90
2018-06-03T23:38:48.963Z,26.90
2018-06-03T23:41:14.995Z,26.90
2018-06-03T23:43:41.014Z,26.90
2018-06-03T23:46:07.052Z,26.90
2018-06-03T23:48:33.062Z,26.80
2018-06-03T23:50:59.113Z,26.90
2018-06-03T23:53:25.141Z,26.90
2018-06-03T23:55:51.162Z,26.80
2018-06-03T23:58:17.170Z,26.80
